Time;durP1;ratioP1;P1;durP2;ratioP2;P2;SDS_P1;SDS_P2;PMS_P1;PMS_P2;Temp;Humidity;BMP_temperature;BMP_pressure;BME280_temperature;BME280_humidity;BME280_pressure;Samples;Min_cycle;Max_cycle;Signal;HPM_P1;HPM_P2
2023/05/07 00:01:50;;;;;;;32.23;29.80;;;;;;;;;;5061507;28;20844;-78
2023/05/07 00:04:19;;;;;;;32.47;29.90;;;;;;;;;;5073295;28;20447;-78
2023/05/07 00:06:46;;;;;;;33.90;31.13;;;;;;;;;;5074982;28;20485;-78
2023/05/07 00:09:13;;;;;;;33.53;30.67;;;;;;;;;;5075377;28;20426;-79
2023/05/07 00:11:40;;;;;;;32.33;29.77;;;;;;;;;;5063118;28;20417;-79
2023/05/07 00:14:07;;;;;;;33.20;30.70;;;;;;;;;;5060776;28;20462;-78
2023/05/07 00:16:34;;;;;;;32.40;29.47;;;;;;;;;;5060628;28;20477;-79
2023/05/07 00:19:01;;;;;;;32.07;29.60;;;;;;;;;;5061266;28;20490;-79
2023/05/07 00:21:30;;;;;;;31.70;29.40;;;;;;;;;;5062696;28;20849;-80
2023/05/07 00:23:57;;;;;;;30.90;28.77;;;;;;;;;;5062233;28;20418;-79
2023/05/07 00:26:24;;;;;;;32.67;30.07;;;;;;;;;;5060975;28;20441;-79
2023/05/07 00:28:51;;;;;;;33.60;30.80;;;;;;;;;;5060753;28;20497;-78
2023/05/07 00:31:18;;;;;;;33.43;30.47;;;;;;;;;;5060149;28;20442;-79
2023/05/07 00:33:45;;;;;;;32.80;30.30;;;;;;;;;;5059402;28;20483;-79
2023/05/07 00:36:12;;;;;;;31.40;29.07;;;;;;;;;;5058087;28;20437;-78
2023/05/07 00:38:40;;;;;;;33.40;30.80;;;;;;;;;;5059003;28;20878;-79
2023/05/07 00:41:07;;;;;;;35.13;32.30;;;;;;;;;;5058876;28;20435;-79
2023/05/07 00:43:34;;;;;;;33.43;30.80;;;;;;;;;;5058962;28;20507;-79
2023/05/07 00:46:01;;;;;;;31.63;29.23;;;;;;;;;;5058593;28;20425;-79
2023/05/07 00:48:28;;;;;;;31.90;29.40;;;;;;;;;;5058587;28;20487;-78
2023/05/07 00:50:55;;;;;;;33.30;30.73;;;;;;;;;;5058722;28;20475;-78
2023/05/07 00:53:22;;;;;;;34.73;31.70;;;;;;;;;;5058151;28;20865;-79
2023/05/07 00:55:51;;;;;;;31.50;29.13;;;;;;;;;;5058219;28;20456;-78
2023/05/07 00:58:18;;;;;;;32.27;29.80;;;;;;;;;;5058754;28;20852;-79
2023/05/07 01:00:45;;;;;;;32.10;29.70;;;;;;;;;;5057688;28;20457;-78
2023/05/07 01:03:12;;;;;;;32.73;30.13;;;;;;;;;;5058147;28;20448;-79
2023/05/07 01:05:39;;;;;;;33.53;30.97;;;;;;;;;;5058697;28;20443;-78
2023/05/07 01:08:07;;;;;;;31.90;29.40;;;;;;;;;;5058337;28;20778;-78
2023/05/07 01:10:34;;;;;;;34.30;31.17;;;;;;;;;;5058729;28;20462;-79
2023/05/07 01:13:02;;;;;;;33.27;30.73;;;;;;;;;;5057869;28;20438;-78
2023/05/07 01:15:29;;;;;;;34.23;31.40;;;;;;;;;;5057776;28;20409;-79
2023/05/07 01:17:57;;;;;;;33.17;30.67;;;;;;;;;;5057963;28;20516;-79
2023/05/07 01:20:24;;;;;;;33.60;30.90;;;;;;;;;;5058306;28;20475;-79
2023/05/07 01:22:53;;;;;;;34.27;31.57;;;;;;;;;;5057686;28;20534;-79
2023/05/07 01:25:20;;;;;;;32.67;30.07;;;;;;;;;;5058388;28;20439;-78
2023/05/07 01:27:47;;;;;;;36.20;33.30;;;;;;;;;;5058138;28;20438;-79
2023/05/07 01:30:14;;;;;;;33.50;30.73;;;;;;;;;;5057749;28;20499;-78
2023/05/07 01:32:44;;;;;;;33.50;31.00;;;;;;;;;;5058164;28;20508;-79
2023/05/07 01:35:12;;;;;;;35.33;32.50;;;;;;;;;;5058138;28;20459;-78
2023/05/07 01:37:40;;;;;;;34.20;31.40;;;;;;;;;;5058010;28;20857;-79
2023/05/07 01:40:09;;;;;;;35.27;32.53;;;;;;;;;;5057261;28;20458;-78
2023/05/07 01:42:37;;;;;;;33.73;30.47;;;;;;;;;;5057859;28;20462;-79
2023/05/07 01:45:05;;;;;;;34.30;31.37;;;;;;;;;;5057975;28;20421;-77
2023/05/07 01:47:32;;;;;;;33.73;30.87;;;;;;;;;;5057590;28;20429;-79
2023/05/07 01:49:59;;;;;;;33.60;31.10;;;;;;;;;;5057312;28;21019;-78
2023/05/07 01:52:26;;;;;;;34.20;31.53;;;;;;;;;;5058347;28;20427;-78
2023/05/07 01:54:53;;;;;;;35.03;32.30;;;;;;;;;;5057846;28;20461;-79
2023/05/07 01:57:22;;;;;;;32.77;30.07;;;;;;;;;;5057538;28;20429;-78
2023/05/07 01:59:49;;;;;;;34.37;31.50;;;;;;;;;;5057697;28;20899;-78
2023/05/07 02:02:16;;;;;;;33.07;30.40;;;;;;;;;;5058194;28;20418;-79
2023/05/07 02:04:43;;;;;;;35.73;33.03;;;;;;;;;;5059528;28;20480;-78
2023/05/07 02:07:10;;;;;;;34.20;31.70;;;;;;;;;;5061288;28;20457;-79
2023/05/07 02:09:37;;;;;;;35.33;32.30;;;;;;;;;;5061296;28;20536;-79
2023/05/07 02:12:04;;;;;;;35.87;32.67;;;;;;;;;;5061141;28;20450;-79
2023/05/07 02:14:33;;;;;;;36.50;33.60;;;;;;;;;;5061402;28;20425;-79
2023/05/07 02:17:00;;;;;;;34.83;32.13;;;;;;;;;;5060792;28;20443;-77
2023/05/07 02:19:27;;;;;;;33.03;30.47;;;;;;;;;;5059924;28;20513;-78
2023/05/07 02:21:54;;;;;;;34.97;32.17;;;;;;;;;;5060700;28;20454;-78
2023/05/07 02:24:21;;;;;;;36.43;33.53;;;;;;;;;;5060600;28;20450;-78
2023/05/07 02:26:48;;;;;;;35.90;32.70;;;;;;;;;;5059181;28;20504;-78
2023/05/07 02:29:15;;;;;;;35.30;32.40;;;;;;;;;;5059256;28;20489;-78
2023/05/07 02:31:43;;;;;;;36.30;33.30;;;;;;;;;;5060545;28;20427;-78
2023/05/07 02:34:10;;;;;;;37.20;33.90;;;;;;;;;;5060151;28;20458;-78
2023/05/07 02:36:37;;;;;;;35.50;32.60;;;;;;;;;;5059807;28;20552;-78
2023/05/07 02:39:05;;;;;;;39.23;35.70;;;;;;;;;;5059652;28;20498;-78
2023/05/07 02:41:32;;;;;;;34.63;31.63;;;;;;;;;;5060441;28;20421;-78
2023/05/07 02:43:58;;;;;;;34.90;31.80;;;;;;;;;;5059607;28;20636;-79
2023/05/07 02:46:26;;;;;;;34.97;32.10;;;;;;;;;;5059831;28;20500;-78
2023/05/07 02:48:54;;;;;;;34.90;32.03;;;;;;;;;;5060323;28;20450;-79
2023/05/07 02:51:22;;;;;;;37.27;34.03;;;;;;;;;;5059444;28;20482;-79
2023/05/07 02:53:48;;;;;;;35.00;32.20;;;;;;;;;;5060098;28;20566;-78
2023/05/07 02:56:15;;;;;;;36.60;33.60;;;;;;;;;;5059155;28;20471;-80
2023/05/07 02:58:42;;;;;;;36.77;33.80;;;;;;;;;;5059549;28;20965;-79
2023/05/07 03:01:10;;;;;;;36.30;33.50;;;;;;;;;;5059853;28;20425;-78
2023/05/07 03:03:37;;;;;;;36.40;33.40;;;;;;;;;;5060115;28;20541;-78
2023/05/07 03:06:06;;;;;;;36.00;33.00;;;;;;;;;;5058898;28;20483;-77
2023/05/07 03:08:33;;;;;;;35.77;33.00;;;;;;;;;;5059833;28;20447;-78
2023/05/07 03:11:00;;;;;;;35.17;32.47;;;;;;;;;;5060206;28;20455;-78
2023/05/07 03:13:27;;;;;;;36.67;33.57;;;;;;;;;;5059604;28;20447;-81
2023/05/07 03:15:54;;;;;;;35.67;32.63;;;;;;;;;;5058347;28;20471;-79
2023/05/07 03:18:21;;;;;;;37.20;34.10;;;;;;;;;;5059272;28;20994;-78
2023/05/07 03:20:49;;;;;;;38.03;34.60;;;;;;;;;;5059798;28;20462;-78
2023/05/07 03:23:17;;;;;;;34.73;31.73;;;;;;;;;;5059125;28;20462;-78
2023/05/07 03:25:44;;;;;;;37.57;34.33;;;;;;;;;;5059422;28;20512;-78
2023/05/07 03:28:11;;;;;;;38.03;35.00;;;;;;;;;;5058723;28;20810;-79
2023/05/07 03:30:38;;;;;;;38.33;35.40;;;;;;;;;;5058247;28;20881;-79
2023/05/07 03:33:05;;;;;;;37.43;34.23;;;;;;;;;;5058623;28;20455;-78
2023/05/07 03:35:32;;;;;;;36.37;33.17;;;;;;;;;;5058108;28;20488;-78
2023/05/07 03:37:59;;;;;;;35.50;32.63;;;;;;;;;;5058060;28;20449;-78
2023/05/07 03:40:28;;;;;;;36.60;33.37;;;;;;;;;;5058677;28;20465;-79
2023/05/07 03:42:55;;;;;;;40.53;36.90;;;;;;;;;;5058920;28;20463;-78
2023/05/07 03:45:22;;;;;;;35.80;32.90;;;;;;;;;;5059030;28;20441;-78
2023/05/07 03:47:48;;;;;;;37.50;34.43;;;;;;;;;;5058383;28;20433;-78
2023/05/07 03:50:15;;;;;;;35.83;32.70;;;;;;;;;;5058171;28;20533;-78
2023/05/07 03:52:42;;;;;;;38.97;35.07;;;;;;;;;;5058221;28;20454;-79
2023/05/07 03:55:10;;;;;;;38.23;34.77;;;;;;;;;;5058676;28;20467;-79
2023/05/07 03:57:38;;;;;;;35.03;32.10;;;;;;;;;;5057215;28;20454;-78
2023/05/07 04:00:06;;;;;;;36.77;33.40;;;;;;;;;;5056537;28;20523;-78
2023/05/07 04:02:34;;;;;;;35.60;32.70;;;;;;;;;;5057712;28;20854;-79
2023/05/07 04:05:01;;;;;;;37.23;34.00;;;;;;;;;;5057993;28;20429;-76
2023/05/07 04:07:28;;;;;;;37.53;34.33;;;;;;;;;;5053544;28;20421;-78
2023/05/07 04:09:55;;;;;;;35.50;32.50;;;;;;;;;;5053531;28;20521;-77
2023/05/07 04:12:22;;;;;;;36.77;33.67;;;;;;;;;;5054110;28;20463;-77
2023/05/07 04:14:50;;;;;;;37.33;34.10;;;;;;;;;;5054025;28;20429;-78
2023/05/07 04:17:17;;;;;;;37.27;34.17;;;;;;;;;;5053164;28;20477;-77
2023/05/07 04:19:45;;;;;;;35.87;32.27;;;;;;;;;;5053352;28;20718;-77
2023/05/07 04:22:12;;;;;;;37.47;34.27;;;;;;;;;;5053634;28;20494;-77
2023/05/07 04:24:39;;;;;;;35.60;32.70;;;;;;;;;;5053589;28;20465;-77
2023/05/07 04:27:06;;;;;;;36.43;33.43;;;;;;;;;;5052450;28;20478;-77
2023/05/07 04:29:33;;;;;;;34.70;31.70;;;;;;;;;;5053367;28;20483;-76
2023/05/07 04:32:01;;;;;;;36.20;33.07;;;;;;;;;;5053058;28;20445;-77
2023/05/07 04:34:28;;;;;;;36.97;33.67;;;;;;;;;;5053694;28;20475;-77
2023/05/07 04:36:55;;;;;;;36.77;33.60;;;;;;;;;;5057830;28;20402;-78
2023/05/07 04:39:22;;;;;;;37.40;34.10;;;;;;;;;;5058252;28;20465;-78
2023/05/07 04:41:49;;;;;;;38.27;34.67;;;;;;;;;;5055648;28;20463;-76
2023/05/07 04:44:16;;;;;;;35.87;32.83;;;;;;;;;;5053164;28;20866;-77
2023/05/07 04:46:43;;;;;;;34.80;31.80;;;;;;;;;;5052803;28;20512;-77
2023/05/07 04:49:11;;;;;;;37.43;34.03;;;;;;;;;;5053384;28;20445;-77
2023/05/07 04:51:42;;;;;;;36.70;33.30;;;;;;;;;;5053838;28;20450;-78
2023/05/07 04:54:09;;;;;;;35.23;32.23;;;;;;;;;;5052881;28;20466;-77
2023/05/07 04:56:36;;;;;;;37.40;34.00;;;;;;;;;;5053096;28;20437;-77
2023/05/07 04:59:03;;;;;;;37.33;33.90;;;;;;;;;;5053021;28;20453;-77
2023/05/07 05:01:31;;;;;;;35.90;32.87;;;;;;;;;;5053108;28;20525;-76
2023/05/07 05:03:59;;;;;;;35.40;32.40;;;;;;;;;;5053065;28;20441;-77
2023/05/07 05:06:28;;;;;;;36.67;33.17;;;;;;;;;;5052444;28;20459;-77
2023/05/07 05:08:55;;;;;;;36.00;33.10;;;;;;;;;;5053896;28;20453;-79
2023/05/07 05:11:22;;;;;;;37.47;34.13;;;;;;;;;;5053111;28;20457;-77
2023/05/07 05:13:49;;;;;;;34.57;31.57;;;;;;;;;;5054257;28;20481;-77
2023/05/07 05:16:16;;;;;;;35.57;32.50;;;;;;;;;;5056286;28;20434;-76
2023/05/07 05:18:43;;;;;;;38.30;34.87;;;;;;;;;;5072721;28;20446;-76
2023/05/07 05:21:10;;;;;;;35.93;32.70;;;;;;;;;;5072786;28;20456;-76
2023/05/07 05:23:38;;;;;;;35.87;32.87;;;;;;;;;;5072571;28;20905;-77
2023/05/07 05:26:06;;;;;;;37.23;34.03;;;;;;;;;;5071721;28;20512;-76
2023/05/07 05:28:33;;;;;;;37.47;34.30;;;;;;;;;;5072501;28;20448;-77
2023/05/07 05:31:00;;;;;;;36.77;33.53;;;;;;;;;;5072702;28;20418;-77
2023/05/07 05:33:27;;;;;;;36.83;33.40;;;;;;;;;;5072674;28;20473;-77
2023/05/07 05:35:54;;;;;;;35.10;31.90;;;;;;;;;;5071770;28;20452;-76
2023/05/07 05:38:22;;;;;;;36.77;33.20;;;;;;;;;;5074469;28;20900;-77
2023/05/07 05:40:50;;;;;;;37.13;33.80;;;;;;;;;;5076144;28;20909;-76
2023/05/07 05:43:17;;;;;;;35.00;32.10;;;;;;;;;;5076967;28;20804;-76
2023/05/07 05:45:44;;;;;;;34.63;31.63;;;;;;;;;;5075628;28;20470;-76
2023/05/07 05:48:11;;;;;;;32.80;29.90;;;;;;;;;;5076766;28;20782;-76
2023/05/07 05:50:38;;;;;;;35.43;32.33;;;;;;;;;;5076500;28;20489;-76
2023/05/07 05:53:05;;;;;;;36.30;32.90;;;;;;;;;;5076674;28;20428;-77
2023/05/07 05:55:33;;;;;;;36.73;33.50;;;;;;;;;;5075890;28;20470;-77
2023/05/07 05:58:01;;;;;;;37.00;33.97;;;;;;;;;;5076614;28;20904;-77
2023/05/07 06:00:28;;;;;;;35.97;32.93;;;;;;;;;;5075937;28;20754;-77
2023/05/07 06:02:56;;;;;;;34.07;31.37;;;;;;;;;;5076652;28;20424;-77
2023/05/07 06:05:22;;;;;;;34.07;31.23;;;;;;;;;;5077250;28;20808;-76
2023/05/07 06:07:49;;;;;;;35.97;33.07;;;;;;;;;;5056514;28;20445;-76
2023/05/07 06:10:16;;;;;;;34.27;31.37;;;;;;;;;;5056422;28;20466;-77
2023/05/07 06:12:43;;;;;;;32.70;30.07;;;;;;;;;;5056038;28;20462;-76
2023/05/07 06:15:12;;;;;;;34.50;31.60;;;;;;;;;;5056312;28;20451;-76
2023/05/07 06:17:39;;;;;;;35.90;32.93;;;;;;;;;;5055418;28;20447;-76
2023/05/07 06:20:07;;;;;;;34.70;31.70;;;;;;;;;;5054984;28;20969;-76
2023/05/07 06:22:34;;;;;;;34.50;31.60;;;;;;;;;;5057450;28;20483;-76
2023/05/07 06:25:01;;;;;;;35.43;32.63;;;;;;;;;;5055022;28;20455;-77
2023/05/07 06:27:28;;;;;;;34.80;32.00;;;;;;;;;;5054315;28;20417;-76
2023/05/07 06:29:55;;;;;;;33.33;30.50;;;;;;;;;;5054468;28;20866;-77
2023/05/07 06:32:23;;;;;;;33.93;31.00;;;;;;;;;;5055591;28;20425;-76
2023/05/07 06:34:50;;;;;;;35.63;32.10;;;;;;;;;;5055559;28;20425;-77
2023/05/07 06:37:17;;;;;;;29.90;27.20;;;;;;;;;;5055473;28;20455;-77
2023/05/07 06:39:44;;;;;;;33.57;30.33;;;;;;;;;;5054864;28;20989;-76
2023/05/07 06:42:11;;;;;;;35.20;32.30;;;;;;;;;;5055745;28;20873;-77
2023/05/07 06:44:38;;;;;;;33.10;30.30;;;;;;;;;;5056578;28;20483;-76
2023/05/07 06:47:05;;;;;;;33.60;30.90;;;;;;;;;;5056040;28;20421;-76
2023/05/07 06:49:34;;;;;;;33.63;30.83;;;;;;;;;;5054395;28;20859;-77
2023/05/07 06:52:01;;;;;;;34.00;31.20;;;;;;;;;;5055114;28;20435;-77
2023/05/07 06:54:28;;;;;;;33.93;31.37;;;;;;;;;;5055303;28;20543;-76
2023/05/07 06:56:55;;;;;;;34.20;31.13;;;;;;;;;;5054545;28;20464;-77
2023/05/07 06:59:22;;;;;;;33.40;30.80;;;;;;;;;;5055203;28;20476;-77
2023/05/07 07:01:49;;;;;;;34.10;31.43;;;;;;;;;;5054807;28;21255;-77
2023/05/07 07:04:16;;;;;;;31.97;29.07;;;;;;;;;;5055591;28;20431;-77
2023/05/07 07:06:44;;;;;;;31.67;28.90;;;;;;;;;;5054070;28;20443;-77
2023/05/07 07:09:11;;;;;;;32.17;29.60;;;;;;;;;;5065625;28;20440;-77
2023/05/07 07:11:38;;;;;;;33.13;30.50;;;;;;;;;;5073257;28;20859;-77
2023/05/07 07:14:05;;;;;;;33.57;30.83;;;;;;;;;;5074371;28;20495;-76
2023/05/07 07:16:32;;;;;;;33.10;30.50;;;;;;;;;;5074221;28;20817;-77
2023/05/07 07:18:59;;;;;;;31.10;28.50;;;;;;;;;;5074981;28;20444;-76
2023/05/07 07:21:26;;;;;;;29.13;27.07;;;;;;;;;;5070203;28;20845;-77
2023/05/07 07:23:55;;;;;;;29.83;27.60;;;;;;;;;;5051296;28;20432;-76
2023/05/07 07:26:22;;;;;;;30.70;28.20;;;;;;;;;;5044985;28;20507;-76
2023/05/07 07:28:49;;;;;;;30.70;28.30;;;;;;;;;;5074003;28;20563;-77
2023/05/07 07:31:16;;;;;;;29.67;27.30;;;;;;;;;;5041798;28;20449;-77
2023/05/07 07:33:43;;;;;;;29.77;27.47;;;;;;;;;;5073839;28;20401;-76
2023/05/07 07:36:10;;;;;;;31.53;29.20;;;;;;;;;;5045132;28;20833;-76
2023/05/07 07:38:37;;;;;;;31.97;29.47;;;;;;;;;;5074213;28;20448;-77
2023/05/07 07:41:05;;;;;;;31.80;29.20;;;;;;;;;;5073491;28;20453;-76
2023/05/07 07:43:32;;;;;;;30.07;27.97;;;;;;;;;;5057625;28;21547;-77
2023/05/07 07:45:59;;;;;;;31.43;29.10;;;;;;;;;;5059542;28;21379;-84
2023/05/07 07:48:26;;;;;;;30.67;28.27;;;;;;;;;;5074807;28;20466;-77
2023/05/07 07:50:53;;;;;;;29.97;27.77;;;;;;;;;;5045759;28;20737;-76
2023/05/07 07:53:20;;;;;;;31.90;29.50;;;;;;;;;;5044021;28;20475;-77
2023/05/07 07:55:47;;;;;;;30.40;28.20;;;;;;;;;;5044020;28;20432;-76
2023/05/07 07:58:15;;;;;;;30.90;28.90;;;;;;;;;;5073106;28;20516;-76
2023/05/07 08:00:42;;;;;;;30.23;27.83;;;;;;;;;;5067421;28;20506;-77
2023/05/07 08:03:10;;;;;;;29.33;27.17;;;;;;;;;;5053858;28;21371;-77
2023/05/07 08:05:38;;;;;;;30.97;28.77;;;;;;;;;;5066234;28;20901;-77
2023/05/07 08:08:05;;;;;;;27.60;25.60;;;;;;;;;;5073841;28;20460;-76
2023/05/07 08:10:34;;;;;;;29.90;27.70;;;;;;;;;;5073805;28;20476;-77
2023/05/07 08:13:01;;;;;;;29.20;26.97;;;;;;;;;;5073661;28;20502;-77
2023/05/07 08:15:29;;;;;;;28.57;26.50;;;;;;;;;;5074014;28;20485;-76
2023/05/07 08:17:57;;;;;;;28.50;26.47;;;;;;;;;;5073829;28;20479;-77
2023/05/07 08:20:24;;;;;;;28.53;26.47;;;;;;;;;;5074694;28;20468;-76
2023/05/07 08:22:51;;;;;;;28.93;26.83;;;;;;;;;;5073451;28;20534;-77
2023/05/07 08:25:18;;;;;;;29.77;27.67;;;;;;;;;;5074323;28;20444;-76
2023/05/07 08:27:45;;;;;;;29.87;27.67;;;;;;;;;;5073894;28;20434;-77
2023/05/07 08:30:12;;;;;;;27.00;25.20;;;;;;;;;;5073723;28;20955;-78
2023/05/07 08:32:41;;;;;;;28.77;26.83;;;;;;;;;;5074005;28;20513;-77
2023/05/07 08:35:08;;;;;;;27.27;25.57;;;;;;;;;;5073827;28;20461;-77
2023/05/07 08:37:35;;;;;;;29.07;27.07;;;;;;;;;;5073382;28;20426;-76
2023/05/07 08:40:02;;;;;;;31.23;29.23;;;;;;;;;;5072201;28;20494;-77
2023/05/07 08:42:30;;;;;;;28.20;26.10;;;;;;;;;;5072905;28;20943;-77
2023/05/07 08:44:59;;;;;;;28.63;26.73;;;;;;;;;;5073577;28;20462;-77
2023/05/07 08:47:29;;;;;;;30.17;28.07;;;;;;;;;;5072884;28;20450;-77
2023/05/07 08:49:57;;;;;;;29.80;27.90;;;;;;;;;;5072477;28;20482;-77
2023/05/07 08:52:25;;;;;;;28.67;26.77;;;;;;;;;;5073354;28;20454;-77
2023/05/07 08:54:52;;;;;;;29.47;27.50;;;;;;;;;;5073286;28;20453;-77
2023/05/07 08:57:19;;;;;;;27.33;25.43;;;;;;;;;;5072495;28;20440;-76
2023/05/07 08:59:46;;;;;;;28.87;26.83;;;;;;;;;;5072452;28;20563;-76
2023/05/07 09:02:14;;;;;;;28.60;26.77;;;;;;;;;;5071657;28;20486;-76
2023/05/07 09:04:41;;;;;;;26.53;24.50;;;;;;;;;;5073295;28;20483;-77
2023/05/07 09:07:10;;;;;;;28.40;26.50;;;;;;;;;;5072991;28;20472;-77
2023/05/07 09:09:37;;;;;;;30.50;28.27;;;;;;;;;;5071396;28;20494;-76
2023/05/07 09:12:05;;;;;;;28.37;26.37;;;;;;;;;;5070331;28;20430;-77
2023/05/07 09:14:32;;;;;;;28.63;26.80;;;;;;;;;;5073108;28;20783;-77
2023/05/07 09:16:59;;;;;;;29.33;27.33;;;;;;;;;;5073186;28;20426;-77
2023/05/07 09:19:26;;;;;;;28.17;26.20;;;;;;;;;;5071207;28;20497;-78
2023/05/07 09:21:59;;;;;;;27.13;25.43;;;;;;;;;;5073194;28;20459;-77
2023/05/07 09:24:30;;;;;;;26.53;24.93;;;;;;;;;;5074666;28;20470;-77
2023/05/07 09:27:00;;;;;;;28.90;26.90;;;;;;;;;;5073335;28;20430;-77
2023/05/07 09:29:28;;;;;;;27.13;25.33;;;;;;;;;;5076997;28;20538;-77
2023/05/07 09:31:55;;;;;;;28.30;26.50;;;;;;;;;;5073861;28;20415;-78
2023/05/07 09:34:23;;;;;;;27.57;25.80;;;;;;;;;;5073461;28;20438;-82
2023/05/07 09:36:50;;;;;;;28.80;26.90;;;;;;;;;;5059961;28;20863;-83
2023/05/07 09:39:17;;;;;;;28.27;26.47;;;;;;;;;;5061593;28;20445;-85
2023/05/07 09:41:46;;;;;;;28.20;26.30;;;;;;;;;;5077897;28;20982;-84
2023/05/07 09:44:14;;;;;;;32.00;29.90;;;;;;;;;;5079009;28;20421;-84
2023/05/07 09:46:43;;;;;;;30.23;28.23;;;;;;;;;;5078347;28;20472;-84
2023/05/07 09:49:14;;;;;;;28.40;26.60;;;;;;;;;;5078879;28;20470;-77
2023/05/07 09:51:43;;;;;;;27.40;25.70;;;;;;;;;;5072762;28;20406;-77
2023/05/07 09:54:11;;;;;;;26.33;24.73;;;;;;;;;;5073071;28;20594;-77
2023/05/07 09:56:38;;;;;;;27.67;25.97;;;;;;;;;;5071910;28;20519;-77
2023/05/07 09:59:07;;;;;;;27.30;25.60;;;;;;;;;;5073450;28;20476;-78
2023/05/07 10:01:34;;;;;;;26.30;24.57;;;;;;;;;;5064724;28;20483;-76
2023/05/07 10:04:03;;;;;;;26.33;24.70;;;;;;;;;;5062195;28;20964;-82
2023/05/07 10:06:31;;;;;;;29.10;27.30;;;;;;;;;;5058477;28;20447;-78
2023/05/07 10:08:58;;;;;;;28.20;26.23;;;;;;;;;;5063813;28;20464;-77
2023/05/07 10:11:25;;;;;;;27.77;25.97;;;;;;;;;;5059496;28;20504;-78
2023/05/07 10:13:53;;;;;;;25.50;23.90;;;;;;;;;;5069405;28;20450;-78
2023/05/07 10:16:22;;;;;;;26.57;24.77;;;;;;;;;;5067095;28;20483;-87
2023/05/07 10:18:49;;;;;;;27.07;25.13;;;;;;;;;;5056607;28;20461;-77
2023/05/07 10:21:18;;;;;;;27.13;25.37;;;;;;;;;;5053203;28;20936;-77
2023/05/07 10:23:46;;;;;;;27.03;25.30;;;;;;;;;;5053174;28;20428;-75
2023/05/07 10:26:14;;;;;;;28.27;26.33;;;;;;;;;;5057384;28;20423;-77
2023/05/07 10:28:43;;;;;;;25.60;24.10;;;;;;;;;;5061223;28;20426;-76
2023/05/07 10:31:16;;;;;;;25.47;23.87;;;;;;;;;;5079438;28;20415;-79
2023/05/07 10:33:46;;;;;;;26.70;24.80;;;;;;;;;;5083478;28;20448;-82
2023/05/07 10:36:13;;;;;;;26.93;25.23;;;;;;;;;;5077866;28;20932;-81
2023/05/07 10:38:41;;;;;;;27.73;26.00;;;;;;;;;;5072242;28;20432;-82
2023/05/07 10:41:08;;;;;;;26.40;24.70;;;;;;;;;;5063804;28;20484;-82
2023/05/07 10:43:40;;;;;;;26.80;25.00;;;;;;;;;;5056251;28;20422;-77
2023/05/07 10:46:15;;;;;;;25.27;23.57;;;;;;;;;;5055363;28;20445;-78
2023/05/07 10:49:01;;;;;;;26.33;24.63;;;;;;;;;;5056180;28;20849;-76
2023/05/07 10:51:31;;;;;;;26.63;24.93;;;;;;;;;;5055602;28;20405;-76
2023/05/07 10:54:13;;;;;;;26.90;25.20;;;;;;;;;;5056012;28;20522;-77
2023/05/07 10:56:40;;;;;;;25.93;24.23;;;;;;;;;;5053784;28;20432;-77
2023/05/07 10:59:30;;;;;;;26.03;24.50;;;;;;;;;;5055692;28;20491;-76
2023/05/07 11:01:58;;;;;;;27.00;25.30;;;;;;;;;;5056246;28;20448;-76
2023/05/07 11:04:26;;;;;;;25.53;24.03;;;;;;;;;;5057921;28;20941;-77
2023/05/07 11:07:12;;;;;;;27.50;25.80;;;;;;;;;;5055215;28;20880;-77
2023/05/07 11:09:55;;;;;;;26.40;24.77;;;;;;;;;;5054829;28;20494;-77
2023/05/07 11:12:37;;;;;;;24.70;23.30;;;;;;;;;;5055213;28;20435;-76
2023/05/07 11:15:06;;;;;;;26.53;24.83;;;;;;;;;;5054605;28;20456;-77
2023/05/07 11:17:34;;;;;;;28.50;26.70;;;;;;;;;;5054496;28;20541;-77
2023/05/07 11:20:02;;;;;;;26.60;25.00;;;;;;;;;;5055298;28;20499;-76
2023/05/07 11:22:47;;;;;;;27.00;25.33;;;;;;;;;;5054808;28;20475;-76
2023/05/07 11:25:19;;;;;;;26.30;24.57;;;;;;;;;;5057156;28;20805;-77
2023/05/07 11:27:46;;;;;;;26.40;24.70;;;;;;;;;;5056911;28;20880;-76
2023/05/07 11:30:19;;;;;;;26.87;25.33;;;;;;;;;;5057570;28;20448;-78
2023/05/07 11:32:48;;;;;;;25.10;23.60;;;;;;;;;;5056512;28;20441;-78
2023/05/07 11:35:15;;;;;;;24.00;22.67;;;;;;;;;;5058099;28;20453;-78
2023/05/07 11:37:43;;;;;;;31.60;29.50;;;;;;;;;;5058304;28;20464;-75
2023/05/07 11:40:10;;;;;;;27.57;25.87;;;;;;;;;;5057983;28;20480;-78
2023/05/07 11:42:39;;;;;;;25.30;23.80;;;;;;;;;;5058090;28;21063;-78
2023/05/07 11:45:07;;;;;;;27.03;25.23;;;;;;;;;;5058096;28;20452;-78
2023/05/07 11:47:35;;;;;;;24.40;22.73;;;;;;;;;;5056046;28;20428;-79
2023/05/07 11:50:04;;;;;;;26.40;24.60;;;;;;;;;;5062313;28;20469;-78
2023/05/07 11:52:31;;;;;;;26.00;24.50;;;;;;;;;;5055942;28;20436;-76
2023/05/07 11:54:59;;;;;;;24.90;23.50;;;;;;;;;;5057188;28;20933;-77
2023/05/07 11:57:26;;;;;;;25.40;23.90;;;;;;;;;;5054023;28;20937;-77
2023/05/07 11:59:54;;;;;;;25.70;24.13;;;;;;;;;;5053450;28;20484;-77
2023/05/07 12:02:21;;;;;;;26.13;24.63;;;;;;;;;;5054183;28;20456;-77
2023/05/07 12:04:49;;;;;;;25.97;24.13;;;;;;;;;;5054321;28;20450;-77
2023/05/07 12:07:17;;;;;;;25.87;24.43;;;;;;;;;;5053193;28;20454;-84
2023/05/07 12:09:45;;;;;;;26.27;24.70;;;;;;;;;;5064680;28;20500;-81
2023/05/07 12:12:14;;;;;;;25.47;23.97;;;;;;;;;;5058865;28;20838;-87
2023/05/07 12:14:41;;;;;;;26.90;25.10;;;;;;;;;;5058459;28;20449;-87
2023/05/07 12:17:09;;;;;;;25.97;24.27;;;;;;;;;;5059263;28;20449;-87
2023/05/07 12:19:36;;;;;;;24.87;23.37;;;;;;;;;;5058222;28;20491;-80
2023/05/07 12:22:05;;;;;;;24.47;23.07;;;;;;;;;;5055149;28;20842;-78
2023/05/07 12:24:43;;;;;;;26.13;24.30;;;;;;;;;;5058178;28;20449;-86
2023/05/07 12:27:10;;;;;;;24.53;23.13;;;;;;;;;;5057020;28;20932;-85
2023/05/07 12:29:38;;;;;;;25.00;23.50;;;;;;;;;;5057760;28;20864;-86
2023/05/07 12:32:07;;;;;;;24.43;23.03;;;;;;;;;;5057601;28;20429;-87
2023/05/07 12:34:34;;;;;;;25.13;23.63;;;;;;;;;;5057739;28;20436;-86
2023/05/07 12:37:04;;;;;;;23.77;22.47;;;;;;;;;;5060496;28;20481;-88
2023/05/07 12:39:32;;;;;;;24.50;23.00;;;;;;;;;;5063693;28;20489;-78
2023/05/07 12:42:00;;;;;;;24.60;23.30;;;;;;;;;;5075146;28;20554;-77
2023/05/07 12:44:30;;;;;;;25.53;23.90;;;;;;;;;;5075190;28;20485;-77
2023/05/07 12:46:58;;;;;;;23.00;21.70;;;;;;;;;;5076561;28;20399;-78
2023/05/07 12:49:25;;;;;;;25.67;23.87;;;;;;;;;;5077111;28;20476;-78
2023/05/07 12:51:52;;;;;;;25.23;23.73;;;;;;;;;;5076711;28;20493;-78
2023/05/07 12:54:29;;;;;;;26.37;24.77;;;;;;;;;;5077222;28;20430;-78
2023/05/07 12:57:03;;;;;;;25.10;23.50;;;;;;;;;;5076566;28;20407;-78
2023/05/07 12:59:33;;;;;;;24.83;23.33;;;;;;;;;;5076905;28;20444;-78
2023/05/07 13:02:01;;;;;;;24.07;22.77;;;;;;;;;;5076252;28;20460;-78
2023/05/07 13:04:28;;;;;;;28.50;26.83;;;;;;;;;;5077415;28;20457;-79
2023/05/07 13:06:55;;;;;;;25.57;24.07;;;;;;;;;;5075877;28;20428;-78
2023/05/07 13:09:22;;;;;;;24.17;22.77;;;;;;;;;;5076154;28;20456;-78
2023/05/07 13:11:49;;;;;;;26.20;24.70;;;;;;;;;;5076116;28;20494;-78
2023/05/07 13:14:17;;;;;;;25.50;24.10;;;;;;;;;;5076295;28;20937;-78
2023/05/07 13:16:44;;;;;;;25.83;24.33;;;;;;;;;;5075965;28;20478;-78
2023/05/07 13:19:11;;;;;;;24.03;22.63;;;;;;;;;;5075924;28;20451;-78
2023/05/07 13:21:38;;;;;;;25.33;23.90;;;;;;;;;;5076070;28;20583;-79
2023/05/07 13:24:05;;;;;;;23.83;22.43;;;;;;;;;;5076522;28;20908;-78
2023/05/07 13:26:32;;;;;;;23.90;22.50;;;;;;;;;;5076791;28;20406;-78
2023/05/07 13:29:00;;;;;;;25.00;23.40;;;;;;;;;;5076659;28;20842;-77
2023/05/07 13:31:28;;;;;;;25.30;23.60;;;;;;;;;;5076065;28;20427;-77
2023/05/07 13:33:56;;;;;;;25.17;23.50;;;;;;;;;;5076487;28;20423;-80
2023/05/07 13:36:23;;;;;;;24.97;23.53;;;;;;;;;;5076087;28;20834;-88
2023/05/07 13:38:50;;;;;;;25.17;23.77;;;;;;;;;;5080161;28;20845;-79
2023/05/07 13:41:17;;;;;;;25.70;24.00;;;;;;;;;;5080637;28;20453;-78
2023/05/07 13:43:44;;;;;;;26.30;24.70;;;;;;;;;;5080978;28;20457;-81
2023/05/07 13:46:11;;;;;;;26.77;25.17;;;;;;;;;;5080023;28;20455;-78
2023/05/07 13:48:39;;;;;;;25.33;23.80;;;;;;;;;;5078018;28;20838;-78
2023/05/07 13:51:06;;;;;;;26.90;25.30;;;;;;;;;;5078207;28;20396;-80
2023/05/07 13:53:33;;;;;;;24.43;22.93;;;;;;;;;;5077690;28;20441;-78
2023/05/07 13:56:00;;;;;;;26.20;24.50;;;;;;;;;;5074124;28;20457;-77
2023/05/07 13:58:27;;;;;;;27.83;26.13;;;;;;;;;;5073243;28;20501;-79
2023/05/07 14:00:54;;;;;;;27.07;25.27;;;;;;;;;;5076765;28;20419;-78
2023/05/07 14:03:21;;;;;;;27.67;25.93;;;;;;;;;;5077517;28;20455;-79
2023/05/07 14:05:49;;;;;;;26.20;24.53;;;;;;;;;;5079883;28;20446;-80
2023/05/07 14:08:19;;;;;;;25.80;24.20;;;;;;;;;;5077989;28;20497;-78
2023/05/07 14:10:46;;;;;;;27.97;26.07;;;;;;;;;;5076440;28;20883;-78
2023/05/07 14:13:13;;;;;;;27.83;25.77;;;;;;;;;;5076907;28;20416;-78
2023/05/07 14:15:43;;;;;;;26.53;24.87;;;;;;;;;;5076793;28;20440;-78
2023/05/07 14:18:10;;;;;;;26.77;25.00;;;;;;;;;;5076728;28;20432;-82
2023/05/07 14:20:37;;;;;;;27.33;25.53;;;;;;;;;;5078362;28;20487;-79